Ryeland, Pennsylvania
Current Conditions -  °F | °C
As of 4:42 AM on Monday 24 Nov 2014 (Local Time) from KRDG Reporting Station
Moderate Rain Moderate Rain  
Wind Chill: 17°   Ceiling: 1300
Heat Index: 17°   Visibility: 4mi
Dew Point: 15°   Wind: 7mph
Humidity: 90%   Direction: 170°S
Pressure: 29.63"   Gusts: NA
Location:  40.3905°N, 76.2083°W
Report Text: KRDG 240942Z AUTO 17006KT 4SM RA BR FEW009 OVC013 17/15 A2963 RMK AO2 P0009 T01670150
Loading
Personal Weather Stations






























Interactive Weather Map New forecast layout! Learn more

10-Day Weather Forecast

Advertisements
Track Severe Weather on mobile